sensor_id;sensor_type;location;lat;lon;timestamp;temperature;humidity
7842;DHT22;3966;51.052;13.820;2023-05-07T00:00:20;10.90;99.90
7842;DHT22;3966;51.052;13.820;2023-05-07T00:02:46;10.80;99.90
7842;DHT22;3966;51.052;13.820;2023-05-07T00:05:12;10.80;99.90
7842;DHT22;3966;51.052;13.820;2023-05-07T00:07:38;10.70;99.90
7842;DHT22;3966;51.052;13.820;2023-05-07T00:10:04;10.90;99.90
7842;DHT22;3966;51.052;13.820;2023-05-07T00:12:31;10.90;99.90
7842;DHT22;3966;51.052;13.820;2023-05-07T00:14:59;11.10;99.90
7842;DHT22;3966;51.052;13.820;2023-05-07T00:17:25;11.00;99.90
7842;DHT22;3966;51.052;13.820;2023-05-07T00:19:50;11.00;99.90
7842;DHT22;3966;51.052;13.820;2023-05-07T00:22:16;11.00;99.90
7842;DHT22;3966;51.052;13.820;2023-05-07T00:24:42;11.00;99.90
7842;DHT22;3966;51.052;13.820;2023-05-07T00:27:08;10.90;99.90
7842;DHT22;3966;51.052;13.820;2023-05-07T00:29:34;11.00;99.90
7842;DHT22;3966;51.052;13.820;2023-05-07T00:31:59;11.00;99.90
7842;DHT22;3966;51.052;13.820;2023-05-07T00:34:25;10.80;99.90
7842;DHT22;3966;51.052;13.820;2023-05-07T00:36:50;10.80;99.90
7842;DHT22;3966;51.052;13.820;2023-05-07T00:39:16;10.80;99.90
7842;DHT22;3966;51.052;13.820;2023-05-07T00:41:42;10.80;99.90
7842;DHT22;3966;51.052;13.820;2023-05-07T00:44:07;10.80;99.90
7842;DHT22;3966;51.052;13.820;2023-05-07T00:46:34;10.70;99.90
7842;DHT22;3966;51.052;13.820;2023-05-07T00:49:00;10.70;99.90
7842;DHT22;3966;51.052;13.820;2023-05-07T00:51:26;10.50;99.90
7842;DHT22;3966;51.052;13.820;2023-05-07T00:53:53;10.50;99.90
7842;DHT22;3966;51.052;13.820;2023-05-07T00:56:22;10.50;99.90
7842;DHT22;3966;51.052;13.820;2023-05-07T00:58:49;10.40;99.90
7842;DHT22;3966;51.052;13.820;2023-05-07T01:01:15;10.40;99.90
7842;DHT22;3966;51.052;13.820;2023-05-07T01:03:43;10.30;99.90
7842;DHT22;3966;51.052;13.820;2023-05-07T01:06:10;10.30;99.90
7842;DHT22;3966;51.052;13.820;2023-05-07T01:08:38;10.30;99.90
7842;DHT22;3966;51.052;13.820;2023-05-07T01:11:06;10.40;99.90
7842;DHT22;3966;51.052;13.820;2023-05-07T01:13:33;10.50;99.90
7842;DHT22;3966;51.052;13.820;2023-05-07T01:15:59;10.50;99.90
7842;DHT22;3966;51.052;13.820;2023-05-07T01:18:25;10.50;99.90
7842;DHT22;3966;51.052;13.820;2023-05-07T01:20:52;10.40;99.90
7842;DHT22;3966;51.052;13.820;2023-05-07T01:23:18;10.40;99.90
7842;DHT22;3966;51.052;13.820;2023-05-07T01:25:51;10.30;99.90
7842;DHT22;3966;51.052;13.820;2023-05-07T01:28:17;10.30;99.90
7842;DHT22;3966;51.052;13.820;2023-05-07T01:30:50;10.20;99.90
7842;DHT22;3966;51.052;13.820;2023-05-07T01:33:19;10.20;99.90
7842;DHT22;3966;51.052;13.820;2023-05-07T01:35:50;10.30;99.90
7842;DHT22;3966;51.052;13.820;2023-05-07T01:38:17;10.30;99.90
7842;DHT22;3966;51.052;13.820;2023-05-07T01:40:43;10.30;99.90
7842;DHT22;3966;51.052;13.820;2023-05-07T01:43:09;10.20;99.90
7842;DHT22;3966;51.052;13.820;2023-05-07T01:45:36;10.30;99.90
7842;DHT22;3966;51.052;13.820;2023-05-07T01:48:02;10.40;99.90
7842;DHT22;3966;51.052;13.820;2023-05-07T01:50:29;10.40;99.90
7842;DHT22;3966;51.052;13.820;2023-05-07T01:52:55;10.50;99.90
7842;DHT22;3966;51.052;13.820;2023-05-07T01:55:21;10.40;99.90
7842;DHT22;3966;51.052;13.820;2023-05-07T01:57:47;10.40;99.90
7842;DHT22;3966;51.052;13.820;2023-05-07T02:00:13;10.40;99.90
7842;DHT22;3966;51.052;13.820;2023-05-07T02:02:38;10.50;99.90
7842;DHT22;3966;51.052;13.820;2023-05-07T02:05:04;10.50;99.90
7842;DHT22;3966;51.052;13.820;2023-05-07T02:07:30;10.60;99.90
7842;DHT22;3966;51.052;13.820;2023-05-07T02:09:56;10.60;99.90
7842;DHT22;3966;51.052;13.820;2023-05-07T02:12:22;10.50;99.90
7842;DHT22;3966;51.052;13.820;2023-05-07T02:14:48;10.50;99.90
7842;DHT22;3966;51.052;13.820;2023-05-07T02:17:14;10.60;99.90
7842;DHT22;3966;51.052;13.820;2023-05-07T02:19:39;10.60;99.90
7842;DHT22;3966;51.052;13.820;2023-05-07T02:22:05;10.60;99.90
7842;DHT22;3966;51.052;13.820;2023-05-07T02:24:30;10.60;99.90
7842;DHT22;3966;51.052;13.820;2023-05-07T02:26:56;10.50;99.90
7842;DHT22;3966;51.052;13.820;2023-05-07T02:29:22;10.50;99.90
7842;DHT22;3966;51.052;13.820;2023-05-07T02:31:47;10.60;99.90
7842;DHT22;3966;51.052;13.820;2023-05-07T02:34:16;10.60;99.90
7842;DHT22;3966;51.052;13.820;2023-05-07T02:36:42;10.60;99.90
7842;DHT22;3966;51.052;13.820;2023-05-07T02:39:08;10.60;99.90
7842;DHT22;3966;51.052;13.820;2023-05-07T02:41:34;10.50;99.90
7842;DHT22;3966;51.052;13.820;2023-05-07T02:43:59;10.50;99.90
7842;DHT22;3966;51.052;13.820;2023-05-07T02:46:25;10.40;99.90
7842;DHT22;3966;51.052;13.820;2023-05-07T02:48:50;10.50;99.90
7842;DHT22;3966;51.052;13.820;2023-05-07T02:51:20;10.50;99.90
7842;DHT22;3966;51.052;13.820;2023-05-07T02:53:46;10.40;99.90
7842;DHT22;3966;51.052;13.820;2023-05-07T02:56:11;10.40;99.90
7842;DHT22;3966;51.052;13.820;2023-05-07T02:58:37;10.20;99.90
7842;DHT22;3966;51.052;13.820;2023-05-07T03:01:05;10.10;99.90
7842;DHT22;3966;51.052;13.820;2023-05-07T03:03:31;10.20;99.90
7842;DHT22;3966;51.052;13.820;2023-05-07T03:05:56;10.10;99.90
7842;DHT22;3966;51.052;13.820;2023-05-07T03:08:22;10.20;99.90
7842;DHT22;3966;51.052;13.820;2023-05-07T03:10:48;10.20;99.90
7842;DHT22;3966;51.052;13.820;2023-05-07T03:13:14;10.30;99.90
7842;DHT22;3966;51.052;13.820;2023-05-07T03:15:40;10.30;99.90
7842;DHT22;3966;51.052;13.820;2023-05-07T03:18:05;10.30;99.90
7842;DHT22;3966;51.052;13.820;2023-05-07T03:20:31;10.20;99.90
7842;DHT22;3966;51.052;13.820;2023-05-07T03:22:57;10.10;99.90
7842;DHT22;3966;51.052;13.820;2023-05-07T03:25:23;10.10;99.90
7842;DHT22;3966;51.052;13.820;2023-05-07T03:27:48;10.00;99.90
7842;DHT22;3966;51.052;13.820;2023-05-07T03:30:14;10.10;99.90
7842;DHT22;3966;51.052;13.820;2023-05-07T03:32:40;10.00;99.90
7842;DHT22;3966;51.052;13.820;2023-05-07T03:35:06;10.00;99.90
7842;DHT22;3966;51.052;13.820;2023-05-07T03:37:32;10.10;99.90
7842;DHT22;3966;51.052;13.820;2023-05-07T03:39:58;10.00;99.90
7842;DHT22;3966;51.052;13.820;2023-05-07T03:42:23;10.10;99.90
7842;DHT22;3966;51.052;13.820;2023-05-07T03:44:49;10.00;99.90
7842;DHT22;3966;51.052;13.820;2023-05-07T03:47:15;10.10;99.90
7842;DHT22;3966;51.052;13.820;2023-05-07T03:49:40;10.00;99.90
7842;DHT22;3966;51.052;13.820;2023-05-07T03:52:06;10.00;99.90
7842;DHT22;3966;51.052;13.820;2023-05-07T03:54:32;10.00;99.90
7842;DHT22;3966;51.052;13.820;2023-05-07T03:56:58;10.00;99.90
7842;DHT22;3966;51.052;13.820;2023-05-07T03:59:24;10.00;99.90
7842;DHT22;3966;51.052;13.820;2023-05-07T04:01:49;9.90;99.90
7842;DHT22;3966;51.052;13.820;2023-05-07T04:04:15;9.80;99.90
7842;DHT22;3966;51.052;13.820;2023-05-07T04:06:41;9.80;99.90
7842;DHT22;3966;51.052;13.820;2023-05-07T04:09:07;9.80;99.90
7842;DHT22;3966;51.052;13.820;2023-05-07T04:11:33;9.70;99.90
7842;DHT22;3966;51.052;13.820;2023-05-07T04:13:58;9.70;99.90
7842;DHT22;3966;51.052;13.820;2023-05-07T04:16:24;9.70;99.90
7842;DHT22;3966;51.052;13.820;2023-05-07T04:18:49;9.70;99.90
7842;DHT22;3966;51.052;13.820;2023-05-07T04:21:16;9.70;99.90
7842;DHT22;3966;51.052;13.820;2023-05-07T04:23:42;9.80;99.90
7842;DHT22;3966;51.052;13.820;2023-05-07T04:26:08;9.80;99.90
7842;DHT22;3966;51.052;13.820;2023-05-07T04:28:34;9.80;99.90
7842;DHT22;3966;51.052;13.820;2023-05-07T04:31:00;9.80;99.90
7842;DHT22;3966;51.052;13.820;2023-05-07T04:33:26;9.90;99.90
7842;DHT22;3966;51.052;13.820;2023-05-07T04:35:51;9.90;99.90
7842;DHT22;3966;51.052;13.820;2023-05-07T04:38:17;9.90;99.90
7842;DHT22;3966;51.052;13.820;2023-05-07T04:40:44;9.90;99.90
7842;DHT22;3966;51.052;13.820;2023-05-07T04:43:09;9.90;99.90
7842;DHT22;3966;51.052;13.820;2023-05-07T04:45:36;9.80;99.90
7842;DHT22;3966;51.052;13.820;2023-05-07T04:48:02;9.80;99.90
7842;DHT22;3966;51.052;13.820;2023-05-07T04:50:27;9.80;99.90
7842;DHT22;3966;51.052;13.820;2023-05-07T04:52:53;9.80;99.90
7842;DHT22;3966;51.052;13.820;2023-05-07T04:55:19;9.90;99.90
7842;DHT22;3966;51.052;13.820;2023-05-07T04:57:44;9.90;99.90
7842;DHT22;3966;51.052;13.820;2023-05-07T05:00:11;9.90;99.90
7842;DHT22;3966;51.052;13.820;2023-05-07T05:02:40;10.00;99.90
7842;DHT22;3966;51.052;13.820;2023-05-07T05:05:06;10.00;99.90
7842;DHT22;3966;51.052;13.820;2023-05-07T05:07:32;10.00;99.90
7842;DHT22;3966;51.052;13.820;2023-05-07T05:09:58;9.90;99.90
7842;DHT22;3966;51.052;13.820;2023-05-07T05:12:23;9.90;99.90
7842;DHT22;3966;51.052;13.820;2023-05-07T05:14:49;9.90;99.90
7842;DHT22;3966;51.052;13.820;2023-05-07T05:17:15;9.90;99.90
7842;DHT22;3966;51.052;13.820;2023-05-07T05:19:41;10.00;99.90
7842;DHT22;3966;51.052;13.820;2023-05-07T05:22:06;10.00;99.90
7842;DHT22;3966;51.052;13.820;2023-05-07T05:24:32;10.10;99.90
7842;DHT22;3966;51.052;13.820;2023-05-07T05:26:58;10.10;99.90
7842;DHT22;3966;51.052;13.820;2023-05-07T05:29:26;10.10;99.90
7842;DHT22;3966;51.052;13.820;2023-05-07T05:31:52;10.10;99.90
7842;DHT22;3966;51.052;13.820;2023-05-07T05:34:18;10.00;99.90
7842;DHT22;3966;51.052;13.820;2023-05-07T05:36:45;10.10;99.90
7842;DHT22;3966;51.052;13.820;2023-05-07T05:39:10;10.30;99.90
7842;DHT22;3966;51.052;13.820;2023-05-07T05:41:36;10.40;99.90
7842;DHT22;3966;51.052;13.820;2023-05-07T05:44:02;10.60;99.90
7842;DHT22;3966;51.052;13.820;2023-05-07T05:46:28;10.60;99.90
7842;DHT22;3966;51.052;13.820;2023-05-07T05:48:53;10.60;99.90
7842;DHT22;3966;51.052;13.820;2023-05-07T05:51:20;10.70;99.90
7842;DHT22;3966;51.052;13.820;2023-05-07T05:53:45;10.70;99.90
7842;DHT22;3966;51.052;13.820;2023-05-07T05:56:11;10.70;99.90
7842;DHT22;3966;51.052;13.820;2023-05-07T05:58:37;10.60;99.90
7842;DHT22;3966;51.052;13.820;2023-05-07T06:01:02;10.70;99.90
7842;DHT22;3966;51.052;13.820;2023-05-07T06:03:28;10.70;99.90
7842;DHT22;3966;51.052;13.820;2023-05-07T06:05:54;10.80;99.90
7842;DHT22;3966;51.052;13.820;2023-05-07T06:08:19;10.80;99.90
7842;DHT22;3966;51.052;13.820;2023-05-07T06:10:45;10.70;99.90
7842;DHT22;3966;51.052;13.820;2023-05-07T06:13:11;10.70;99.90
7842;DHT22;3966;51.052;13.820;2023-05-07T06:15:37;10.50;99.90
7842;DHT22;3966;51.052;13.820;2023-05-07T06:18:02;10.40;99.90
7842;DHT22;3966;51.052;13.820;2023-05-07T06:20:28;10.60;99.90
7842;DHT22;3966;51.052;13.820;2023-05-07T06:22:53;10.70;99.90
7842;DHT22;3966;51.052;13.820;2023-05-07T06:25:19;10.70;99.90
7842;DHT22;3966;51.052;13.820;2023-05-07T06:27:45;10.80;99.90
7842;DHT22;3966;51.052;13.820;2023-05-07T06:30:11;10.80;99.90
7842;DHT22;3966;51.052;13.820;2023-05-07T06:32:36;10.90;99.90
7842;DHT22;3966;51.052;13.820;2023-05-07T06:35:02;10.90;99.90
7842;DHT22;3966;51.052;13.820;2023-05-07T06:37:28;10.80;99.90
7842;DHT22;3966;51.052;13.820;2023-05-07T06:39:53;10.90;99.90
7842;DHT22;3966;51.052;13.820;2023-05-07T06:42:19;10.80;99.90
7842;DHT22;3966;51.052;13.820;2023-05-07T06:44:45;10.90;99.90
7842;DHT22;3966;51.052;13.820;2023-05-07T06:47:10;10.90;99.90
7842;DHT22;3966;51.052;13.820;2023-05-07T06:49:36;10.90;99.90
7842;DHT22;3966;51.052;13.820;2023-05-07T06:52:02;10.90;99.90
7842;DHT22;3966;51.052;13.820;2023-05-07T06:54:28;10.90;99.90
7842;DHT22;3966;51.052;13.820;2023-05-07T06:56:54;10.90;99.90
7842;DHT22;3966;51.052;13.820;2023-05-07T06:59:20;10.90;99.90
7842;DHT22;3966;51.052;13.820;2023-05-07T07:01:45;10.70;99.90
7842;DHT22;3966;51.052;13.820;2023-05-07T07:04:11;10.60;99.90
7842;DHT22;3966;51.052;13.820;2023-05-07T07:06:37;10.60;99.90
7842;DHT22;3966;51.052;13.820;2023-05-07T07:09:02;10.70;99.90
7842;DHT22;3966;51.052;13.820;2023-05-07T07:11:28;10.70;99.90
7842;DHT22;3966;51.052;13.820;2023-05-07T07:13:53;10.70;99.90
7842;DHT22;3966;51.052;13.820;2023-05-07T07:16:21;10.80;99.90
7842;DHT22;3966;51.052;13.820;2023-05-07T07:18:46;10.70;99.90
7842;DHT22;3966;51.052;13.820;2023-05-07T07:21:12;10.70;99.90
7842;DHT22;3966;51.052;13.820;2023-05-07T07:23:37;10.70;99.90
7842;DHT22;3966;51.052;13.820;2023-05-07T07:26:03;10.80;99.90
7842;DHT22;3966;51.052;13.820;2023-05-07T07:28:29;10.90;99.90
7842;DHT22;3966;51.052;13.820;2023-05-07T07:30:55;10.90;99.90
7842;DHT22;3966;51.052;13.820;2023-05-07T07:33:20;10.90;99.90
7842;DHT22;3966;51.052;13.820;2023-05-07T07:35:46;10.90;99.90
7842;DHT22;3966;51.052;13.820;2023-05-07T07:38:11;11.00;99.90
7842;DHT22;3966;51.052;13.820;2023-05-07T07:40:37;11.00;99.90
7842;DHT22;3966;51.052;13.820;2023-05-07T07:43:03;11.00;99.90
7842;DHT22;3966;51.052;13.820;2023-05-07T07:45:28;10.90;99.90
7842;DHT22;3966;51.052;13.820;2023-05-07T07:47:54;10.90;99.90
7842;DHT22;3966;51.052;13.820;2023-05-07T07:50:20;11.00;99.90
7842;DHT22;3966;51.052;13.820;2023-05-07T07:52:46;10.90;99.90
7842;DHT22;3966;51.052;13.820;2023-05-07T07:55:12;11.00;99.90
7842;DHT22;3966;51.052;13.820;2023-05-07T07:57:38;10.80;99.90
7842;DHT22;3966;51.052;13.820;2023-05-07T08:00:04;10.80;99.90
7842;DHT22;3966;51.052;13.820;2023-05-07T08:02:31;10.80;99.90
7842;DHT22;3966;51.052;13.820;2023-05-07T08:04:57;10.80;99.90
7842;DHT22;3966;51.052;13.820;2023-05-07T08:07:22;10.90;99.90
7842;DHT22;3966;51.052;13.820;2023-05-07T08:09:48;10.70;99.90
7842;DHT22;3966;51.052;13.820;2023-05-07T08:12:14;10.70;99.90
7842;DHT22;3966;51.052;13.820;2023-05-07T08:14:40;10.80;99.90
7842;DHT22;3966;51.052;13.820;2023-05-07T08:17:06;10.80;99.90
7842;DHT22;3966;51.052;13.820;2023-05-07T08:19:32;10.80;99.90
7842;DHT22;3966;51.052;13.820;2023-05-07T08:21:57;11.00;99.90
7842;DHT22;3966;51.052;13.820;2023-05-07T08:24:23;11.10;99.90
7842;DHT22;3966;51.052;13.820;2023-05-07T08:26:48;11.20;99.90
7842;DHT22;3966;51.052;13.820;2023-05-07T08:29:15;11.30;99.90
7842;DHT22;3966;51.052;13.820;2023-05-07T08:31:40;11.30;99.90
7842;DHT22;3966;51.052;13.820;2023-05-07T08:34:06;11.30;99.90
7842;DHT22;3966;51.052;13.820;2023-05-07T08:36:32;11.30;99.90
7842;DHT22;3966;51.052;13.820;2023-05-07T08:38:59;11.30;99.90
7842;DHT22;3966;51.052;13.820;2023-05-07T08:41:25;11.40;99.90
7842;DHT22;3966;51.052;13.820;2023-05-07T08:43:51;11.40;99.90
7842;DHT22;3966;51.052;13.820;2023-05-07T08:46:18;11.40;99.90
7842;DHT22;3966;51.052;13.820;2023-05-07T08:48:45;11.50;99.90
7842;DHT22;3966;51.052;13.820;2023-05-07T08:51:14;11.40;99.90
7842;DHT22;3966;51.052;13.820;2023-05-07T08:53:41;11.30;99.90
7842;DHT22;3966;51.052;13.820;2023-05-07T08:56:08;11.30;99.90
7842;DHT22;3966;51.052;13.820;2023-05-07T08:58:34;11.30;99.90
7842;DHT22;3966;51.052;13.820;2023-05-07T09:01:05;11.30;99.90
7842;DHT22;3966;51.052;13.820;2023-05-07T09:03:32;11.30;99.90
7842;DHT22;3966;51.052;13.820;2023-05-07T09:05:58;11.50;99.90
7842;DHT22;3966;51.052;13.820;2023-05-07T09:08:27;11.50;99.90
7842;DHT22;3966;51.052;13.820;2023-05-07T09:10:53;11.70;99.90
7842;DHT22;3966;51.052;13.820;2023-05-07T09:13:19;11.70;99.90
7842;DHT22;3966;51.052;13.820;2023-05-07T09:15:45;11.80;99.90
7842;DHT22;3966;51.052;13.820;2023-05-07T09:18:12;11.80;99.90
7842;DHT22;3966;51.052;13.820;2023-05-07T09:20:38;11.60;99.90
7842;DHT22;3966;51.052;13.820;2023-05-07T09:23:05;11.80;99.90
7842;DHT22;3966;51.052;13.820;2023-05-07T09:25:33;11.50;99.90
7842;DHT22;3966;51.052;13.820;2023-05-07T09:28:00;11.60;99.90
7842;DHT22;3966;51.052;13.820;2023-05-07T09:30:30;11.60;99.90
7842;DHT22;3966;51.052;13.820;2023-05-07T09:32:57;11.70;99.90
7842;DHT22;3966;51.052;13.820;2023-05-07T09:35:23;11.80;99.90
7842;DHT22;3966;51.052;13.820;2023-05-07T09:37:59;11.70;99.90
7842;DHT22;3966;51.052;13.820;2023-05-07T09:40:30;11.60;99.90
7842;DHT22;3966;51.052;13.820;2023-05-07T09:42:56;11.80;99.90
7842;DHT22;3966;51.052;13.820;2023-05-07T09:45:31;11.80;99.90
7842;DHT22;3966;51.052;13.820;2023-05-07T09:47:58;11.90;99.90
7842;DHT22;3966;51.052;13.820;2023-05-07T09:50:36;11.90;99.90
7842;DHT22;3966;51.052;13.820;2023-05-07T09:53:05;12.00;99.90
7842;DHT22;3966;51.052;13.820;2023-05-07T09:55:32;12.10;99.90
7842;DHT22;3966;51.052;13.820;2023-05-07T09:57:58;11.80;99.90
7842;DHT22;3966;51.052;13.820;2023-05-07T10:00:25;11.80;99.90
7842;DHT22;3966;51.052;13.820;2023-05-07T10:02:52;11.70;99.90
7842;DHT22;3966;51.052;13.820;2023-05-07T10:05:19;11.60;99.90
7842;DHT22;3966;51.052;13.820;2023-05-07T10:07:48;11.60;99.90
7842;DHT22;3966;51.052;13.820;2023-05-07T10:10:15;11.70;99.90
7842;DHT22;3966;51.052;13.820;2023-05-07T10:12:41;11.90;99.90
7842;DHT22;3966;51.052;13.820;2023-05-07T10:15:11;12.00;99.90
7842;DHT22;3966;51.052;13.820;2023-05-07T10:17:38;12.10;99.90
7842;DHT22;3966;51.052;13.820;2023-05-07T10:20:05;12.10;99.90
7842;DHT22;3966;51.052;13.820;2023-05-07T10:22:43;12.20;99.90
7842;DHT22;3966;51.052;13.820;2023-05-07T10:25:23;12.30;99.90
7842;DHT22;3966;51.052;13.820;2023-05-07T10:27:51;12.40;99.90
7842;DHT22;3966;51.052;13.820;2023-05-07T10:33:13;12.40;99.90
7842;DHT22;3966;51.052;13.820;2023-05-07T10:35:41;12.50;99.90
7842;DHT22;3966;51.052;13.820;2023-05-07T10:38:08;12.40;99.90
7842;DHT22;3966;51.052;13.820;2023-05-07T10:40:34;12.20;99.90
7842;DHT22;3966;51.052;13.820;2023-05-07T10:43:04;12.20;99.90
7842;DHT22;3966;51.052;13.820;2023-05-07T10:45:30;12.40;99.90
7842;DHT22;3966;51.052;13.820;2023-05-07T10:48:10;12.50;99.90
7842;DHT22;3966;51.052;13.820;2023-05-07T10:50:40;12.60;99.90
7842;DHT22;3966;51.052;13.820;2023-05-07T10:55:51;12.50;99.90
7842;DHT22;3966;51.052;13.820;2023-05-07T10:58:30;12.40;99.90
7842;DHT22;3966;51.052;13.820;2023-05-07T11:01:00;12.50;99.90
7842;DHT22;3966;51.052;13.820;2023-05-07T11:03:28;12.60;99.90
7842;DHT22;3966;51.052;13.820;2023-05-07T11:08:54;12.80;99.90
7842;DHT22;3966;51.052;13.820;2023-05-07T11:11:49;13.10;99.90
7842;DHT22;3966;51.052;13.820;2023-05-07T11:17:08;13.10;99.90
7842;DHT22;3966;51.052;13.820;2023-05-07T11:19:54;13.40;99.90
7842;DHT22;3966;51.052;13.820;2023-05-07T11:25:02;13.50;99.90
7842;DHT22;3966;51.052;13.820;2023-05-07T11:27:29;13.40;99.90
7842;DHT22;3966;51.052;13.820;2023-05-07T11:29:55;13.30;99.90
7842;DHT22;3966;51.052;13.820;2023-05-07T11:32:31;13.40;99.90
7842;DHT22;3966;51.052;13.820;2023-05-07T11:34:59;13.40;99.90
7842;DHT22;3966;51.052;13.820;2023-05-07T11:37:26;13.50;99.90
7842;DHT22;3966;51.052;13.820;2023-05-07T11:40:03;13.60;99.90
7842;DHT22;3966;51.052;13.820;2023-05-07T11:42:36;13.70;99.90
7842;DHT22;3966;51.052;13.820;2023-05-07T11:45:06;13.70;99.90
7842;DHT22;3966;51.052;13.820;2023-05-07T11:47:33;13.60;99.90
7842;DHT22;3966;51.052;13.820;2023-05-07T11:50:08;13.50;99.90
7842;DHT22;3966;51.052;13.820;2023-05-07T11:52:35;13.60;99.90
7842;DHT22;3966;51.052;13.820;2023-05-07T11:55:02;13.50;99.90
7842;DHT22;3966;51.052;13.820;2023-05-07T11:57:29;13.60;99.90
7842;DHT22;3966;51.052;13.820;2023-05-07T11:59:55;13.50;99.90
7842;DHT22;3966;51.052;13.820;2023-05-07T12:02:21;13.60;99.90
7842;DHT22;3966;51.052;13.820;2023-05-07T12:04:47;13.80;99.90
7842;DHT22;3966;51.052;13.820;2023-05-07T12:07:16;14.00;99.90
7842;DHT22;3966;51.052;13.820;2023-05-07T12:09:43;13.90;99.90
7842;DHT22;3966;51.052;13.820;2023-05-07T12:12:09;13.90;99.90
7842;DHT22;3966;51.052;13.820;2023-05-07T12:14:42;14.10;99.90
7842;DHT22;3966;51.052;13.820;2023-05-07T12:17:09;14.10;99.90
7842;DHT22;3966;51.052;13.820;2023-05-07T12:19:36;14.00;99.90
7842;DHT22;3966;51.052;13.820;2023-05-07T12:22:06;14.20;99.90
7842;DHT22;3966;51.052;13.820;2023-05-07T12:25:01;14.40;99.90
7842;DHT22;3966;51.052;13.820;2023-05-07T12:27:28;14.20;99.90
7842;DHT22;3966;51.052;13.820;2023-05-07T12:29:54;14.00;99.90
7842;DHT22;3966;51.052;13.820;2023-05-07T12:32:21;14.00;99.90
7842;DHT22;3966;51.052;13.820;2023-05-07T12:34:50;14.10;99.90
7842;DHT22;3966;51.052;13.820;2023-05-07T12:37:16;14.10;99.90
7842;DHT22;3966;51.052;13.820;2023-05-07T12:40:08;14.00;99.90
7842;DHT22;3966;51.052;13.820;2023-05-07T12:42:40;13.70;99.90
7842;DHT22;3966;51.052;13.820;2023-05-07T12:45:11;13.90;99.90
7842;DHT22;3966;51.052;13.820;2023-05-07T12:47:37;14.20;99.90
7842;DHT22;3966;51.052;13.820;2023-05-07T12:50:05;14.60;99.90
7842;DHT22;3966;51.052;13.820;2023-05-07T12:52:32;15.00;99.90
7842;DHT22;3966;51.052;13.820;2023-05-07T12:55:07;15.30;99.90
7842;DHT22;3966;51.052;13.820;2023-05-07T12:57:40;15.20;99.90
7842;DHT22;3966;51.052;13.820;2023-05-07T13:00:07;15.40;99.90
7842;DHT22;3966;51.052;13.820;2023-05-07T13:02:33;15.40;99.90
7842;DHT22;3966;51.052;13.820;2023-05-07T13:05:00;15.60;99.90
7842;DHT22;3966;51.052;13.820;2023-05-07T13:07:25;15.60;99.90
7842;DHT22;3966;51.052;13.820;2023-05-07T13:09:51;15.80;99.90
7842;DHT22;3966;51.052;13.820;2023-05-07T13:12:16;15.80;99.90
7842;DHT22;3966;51.052;13.820;2023-05-07T13:14:42;15.90;99.90
7842;DHT22;3966;51.052;13.820;2023-05-07T13:17:08;16.10;99.90
7842;DHT22;3966;51.052;13.820;2023-05-07T13:19:33;16.20;99.90
7842;DHT22;3966;51.052;13.820;2023-05-07T13:21:59;16.10;99.90
7842;DHT22;3966;51.052;13.820;2023-05-07T13:24:25;16.20;99.90
7842;DHT22;3966;51.052;13.820;2023-05-07T13:26:50;15.90;99.90
7842;DHT22;3966;51.052;13.820;2023-05-07T13:29:16;15.80;99.90
7842;DHT22;3966;51.052;13.820;2023-05-07T13:31:41;15.80;99.90
7842;DHT22;3966;51.052;13.820;2023-05-07T13:34:09;15.80;99.90
7842;DHT22;3966;51.052;13.820;2023-05-07T13:36:35;15.80;99.90
7842;DHT22;3966;51.052;13.820;2023-05-07T13:39:03;15.30;99.90
7842;DHT22;3966;51.052;13.820;2023-05-07T13:41:29;15.80;99.90
7842;DHT22;3966;51.052;13.820;2023-05-07T13:43:55;16.50;99.90
7842;DHT22;3966;51.052;13.820;2023-05-07T13:46:21;16.80;99.90
7842;DHT22;3966;51.052;13.820;2023-05-07T13:48:47;16.90;99.90
7842;DHT22;3966;51.052;13.820;2023-05-07T13:51:13;17.10;99.90
7842;DHT22;3966;51.052;13.820;2023-05-07T13:53:38;17.20;99.90
7842;DHT22;3966;51.052;13.820;2023-05-07T13:56:04;17.00;99.90
7842;DHT22;3966;51.052;13.820;2023-05-07T13:58:30;16.80;99.90
7842;DHT22;3966;51.052;13.820;2023-05-07T14:00:56;16.80;99.90
7842;DHT22;3966;51.052;13.820;2023-05-07T14:03:22;17.00;99.90
7842;DHT22;3966;51.052;13.820;2023-05-07T14:05:47;16.80;99.90
7842;DHT22;3966;51.052;13.820;2023-05-07T14:08:13;16.80;99.90
7842;DHT22;3966;51.052;13.820;2023-05-07T14:10:39;16.70;99.90
7842;DHT22;3966;51.052;13.820;2023-05-07T14:13:05;16.40;99.90
7842;DHT22;3966;51.052;13.820;2023-05-07T14:15:31;16.00;99.90
7842;DHT22;3966;51.052;13.820;2023-05-07T14:18:00;16.10;99.90
7842;DHT22;3966;51.052;13.820;2023-05-07T14:20:26;16.40;99.90
7842;DHT22;3966;51.052;13.820;2023-05-07T14:22:51;17.10;99.90
7842;DHT22;3966;51.052;13.820;2023-05-07T14:25:17;17.90;99.90
7842;DHT22;3966;51.052;13.820;2023-05-07T14:27:43;18.20;99.90
7842;DHT22;3966;51.052;13.820;2023-05-07T14:30:08;18.00;99.90
7842;DHT22;3966;51.052;13.820;2023-05-07T14:32:34;17.80;99.90
7842;DHT22;3966;51.052;13.820;2023-05-07T14:35:00;17.90;99.90
7842;DHT22;3966;51.052;13.820;2023-05-07T14:37:25;18.20;99.90
7842;DHT22;3966;51.052;13.820;2023-05-07T14:39:51;18.60;99.90
7842;DHT22;3966;51.052;13.820;2023-05-07T14:42:17;18.40;99.90
7842;DHT22;3966;51.052;13.820;2023-05-07T14:44:43;18.60;99.90
7842;DHT22;3966;51.052;13.820;2023-05-07T14:47:10;18.20;99.90
7842;DHT22;3966;51.052;13.820;2023-05-07T14:49:36;17.80;99.90
7842;DHT22;3966;51.052;13.820;2023-05-07T14:52:01;17.70;99.90
7842;DHT22;3966;51.052;13.820;2023-05-07T14:54:27;17.50;99.90
7842;DHT22;3966;51.052;13.820;2023-05-07T14:56:53;17.00;99.90
7842;DHT22;3966;51.052;13.820;2023-05-07T14:59:19;16.50;99.90
7842;DHT22;3966;51.052;13.820;2023-05-07T15:01:47;16.40;99.90
7842;DHT22;3966;51.052;13.820;2023-05-07T15:04:13;16.70;99.90
7842;DHT22;3966;51.052;13.820;2023-05-07T15:06:38;16.30;99.90
7842;DHT22;3966;51.052;13.820;2023-05-07T15:09:04;16.20;99.90
7842;DHT22;3966;51.052;13.820;2023-05-07T15:11:30;16.00;99.90
7842;DHT22;3966;51.052;13.820;2023-05-07T15:13:56;16.20;99.90
7842;DHT22;3966;51.052;13.820;2023-05-07T15:16:22;16.30;99.90
7842;DHT22;3966;51.052;13.820;2023-05-07T15:18:48;16.20;99.90
7842;DHT22;3966;51.052;13.820;2023-05-07T15:21:14;16.20;99.90
7842;DHT22;3966;51.052;13.820;2023-05-07T15:23:39;15.60;99.90
7842;DHT22;3966;51.052;13.820;2023-05-07T15:26:07;15.30;99.90
7842;DHT22;3966;51.052;13.820;2023-05-07T15:28:33;15.30;99.90
7842;DHT22;3966;51.052;13.820;2023-05-07T15:30:59;15.40;99.90
7842;DHT22;3966;51.052;13.820;2023-05-07T15:33:25;15.60;99.90
7842;DHT22;3966;51.052;13.820;2023-05-07T15:35:50;15.60;99.90
7842;DHT22;3966;51.052;13.820;2023-05-07T15:38:16;15.70;99.90
7842;DHT22;3966;51.052;13.820;2023-05-07T15:40:42;15.50;99.90
7842;DHT22;3966;51.052;13.820;2023-05-07T15:43:08;15.70;99.90
7842;DHT22;3966;51.052;13.820;2023-05-07T15:45:42;16.00;99.90
7842;DHT22;3966;51.052;13.820;2023-05-07T15:48:08;16.00;99.90
7842;DHT22;3966;51.052;13.820;2023-05-07T15:50:35;15.80;99.90
7842;DHT22;3966;51.052;13.820;2023-05-07T15:53:04;15.60;99.90
7842;DHT22;3966;51.052;13.820;2023-05-07T15:55:33;15.40;99.90
7842;DHT22;3966;51.052;13.820;2023-05-07T15:57:59;15.20;99.90